Time;durP1;ratioP1;P1;durP2;ratioP2;P2;SDS_P1;SDS_P2;PMS_P1;PMS_P2;Temp;Humidity;BMP_temperature;BMP_pressure;BME280_temperature;BME280_humidity;BME280_pressure;Samples;Min_cycle;Max_cycle;Signal;HPM_P1;HPM_P2
2021/05/27 00:01:10;;;;;;;13.75;8.40;;;;;;;;;;6202546;28;20084;-73
2021/05/27 00:04:11;;;;;;;105.68;56.72;;;;;;;;;;6204069;28;20065;-73
2021/05/27 00:07:12;;;;;;;30.20;15.43;;;;;;;;;;6209162;28;20473;-74
2021/05/27 00:10:17;;;;;;;26.70;12.32;;;;;;;;;;6211767;28;20046;-72
2021/05/27 00:13:20;;;;;;;10.15;2.88;;;;;;;;;;6211397;28;20140;-73
2021/05/27 00:16:21;;;;;;;9.65;1.85;;;;;;;;;;6211755;28;20673;-73
2021/05/27 00:19:22;;;;;;;8.85;1.52;;;;;;;;;;6211359;28;20045;-72
2021/05/27 00:22:23;;;;;;;5.50;1.58;;;;;;;;;;6210250;28;20081;-73
2021/05/27 00:25:25;;;;;;;5.72;1.67;;;;;;;;;;6211341;28;20054;-73
2021/05/27 00:28:27;;;;;;;10.85;1.73;;;;;;;;;;6214187;28;20081;-73
2021/05/27 00:31:28;;;;;;;7.18;1.83;;;;;;;;;;6206291;28;20046;-73
2021/05/27 00:34:32;;;;;;;4.50;1.30;;;;;;;;;;6212000;28;20612;-72
2021/05/27 00:37:33;;;;;;;;;;;;;;;;;;6210974;28;20180;-72
2021/05/27 00:40:34;;;;;;;3.95;1.25;;;;;;;;;;6211658;28;19961;-75
2021/05/27 00:43:36;;;;;;;4.90;1.70;;;;;;;;;;6200433;28;20076;-73
2021/05/27 00:46:37;;;;;;;9.35;1.90;;;;;;;;;;6210433;28;20046;-73
2021/05/27 00:49:39;;;;;;;4.05;1.30;;;;;;;;;;6211819;28;20097;-74
2021/05/27 00:52:40;;;;;;;6.50;1.60;;;;;;;;;;6211222;28;20077;-75
2021/05/27 00:55:41;;;;;;;5.88;1.15;;;;;;;;;;6212421;28;20679;-72
2021/05/27 00:58:43;;;;;;;5.35;1.58;;;;;;;;;;6204126;28;20133;-74
2021/05/27 01:01:47;;;;;;;3.47;1.20;;;;;;;;;;6205976;28;20061;-75
2021/05/27 01:04:48;;;;;;;8.23;1.75;;;;;;;;;;6216195;22;20049;-75
2021/05/27 01:07:49;;;;;;;4.88;2.10;;;;;;;;;;6211964;28;20058;-72
2021/05/27 01:10:50;;;;;;;6.28;1.48;;;;;;;;;;6217412;28;20116;-71
2021/05/27 01:13:55;;;;;;;5.93;1.23;;;;;;;;;;6213779;28;20053;-72
2021/05/27 01:16:56;;;;;;;5.47;1.35;;;;;;;;;;6218483;28;20096;-71
2021/05/27 01:19:57;;;;;;;5.10;1.55;;;;;;;;;;6209867;28;20440;-73
2021/05/27 01:22:59;;;;;;;5.40;1.50;;;;;;;;;;6212337;28;20141;-72
2021/05/27 01:26:00;;;;;;;5.00;1.45;;;;;;;;;;6217311;28;20050;-71
2021/05/27 01:29:02;;;;;;;5.28;1.33;;;;;;;;;;6208968;28;20398;-71
2021/05/27 01:32:04;;;;;;;4.43;1.45;;;;;;;;;;6216193;28;20060;-71
2021/05/27 01:35:07;;;;;;;4.82;1.23;;;;;;;;;;6216278;28;20058;-71
2021/05/27 01:38:14;;;;;;;4.40;1.38;;;;;;;;;;6206458;28;20056;-72
2021/05/27 01:41:15;;;;;;;6.20;1.38;;;;;;;;;;6214238;28;20464;-72
2021/05/27 01:44:17;;;;;;;4.90;1.30;;;;;;;;;;6215479;28;20077;-73
2021/05/27 01:47:18;;;;;;;6.47;1.60;;;;;;;;;;6211726;28;20129;-71
2021/05/27 01:50:20;;;;;;;3.47;1.10;;;;;;;;;;6213988;28;20420;-71
2021/05/27 01:53:22;;;;;;;7.88;1.40;;;;;;;;;;6211546;28;20420;-72
2021/05/27 01:56:23;;;;;;;3.83;1.10;;;;;;;;;;6212409;28;20132;-76
2021/05/27 01:59:25;;;;;;;3.20;1.27;;;;;;;;;;6212995;28;20125;-71
2021/05/27 02:02:26;;;;;;;6.97;1.50;;;;;;;;;;6211053;28;20121;-71
2021/05/27 02:05:34;;;;;;;4.82;1.30;;;;;;;;;;6197610;28;20141;-72
2021/05/27 02:08:37;;;;;;;3.97;1.40;;;;;;;;;;6197292;28;20058;-75
2021/05/27 02:11:40;;;;;;;5.93;1.58;;;;;;;;;;6192916;28;20148;-75
2021/05/27 02:14:41;;;;;;;6.03;1.47;;;;;;;;;;6188938;28;20498;-72
2021/05/27 02:17:42;;;;;;;4.20;1.40;;;;;;;;;;6186257;28;20544;-71
2021/05/27 02:20:47;;;;;;;4.32;1.52;;;;;;;;;;6194085;28;20177;-70
2021/05/27 02:23:53;;;;;;;3.60;1.40;;;;;;;;;;6186343;28;20051;-71
2021/05/27 02:26:54;;;;;;;5.50;1.70;;;;;;;;;;6194730;28;20056;-73
2021/05/27 02:29:55;;;;;;;5.88;1.55;;;;;;;;;;6190700;28;20074;-72
2021/05/27 02:32:56;;;;;;;2.80;1.20;;;;;;;;;;6193644;28;20045;-72
2021/05/27 02:35:58;;;;;;;6.28;1.30;;;;;;;;;;6187873;28;20707;-70
2021/05/27 02:39:00;;;;;;;6.38;1.30;;;;;;;;;;6187735;28;20497;-73
2021/05/27 02:42:01;;;;;;;3.05;1.33;;;;;;;;;;6191763;28;20117;-71
2021/05/27 02:45:03;;;;;;;4.25;1.23;;;;;;;;;;6190431;28;20430;-72
2021/05/27 02:48:05;;;;;;;6.32;1.40;;;;;;;;;;6192002;28;20538;-72
2021/05/27 02:51:06;;;;;;;4.57;1.38;;;;;;;;;;6182916;28;20042;-71
2021/05/27 02:54:08;;;;;;;5.72;1.25;;;;;;;;;;6191496;28;20070;-71
2021/05/27 02:57:11;;;;;;;6.95;1.65;;;;;;;;;;6185738;28;20051;-72
2021/05/27 03:00:14;;;;;;;7.80;1.50;;;;;;;;;;6191155;28;20125;-72
2021/05/27 03:03:16;;;;;;;5.90;1.20;;;;;;;;;;6191766;28;20097;-71
2021/05/27 03:06:18;;;;;;;3.00;1.10;;;;;;;;;;6188580;28;20043;-72
2021/05/27 03:09:20;;;;;;;4.22;0.90;;;;;;;;;;6189207;28;20096;-73
2021/05/27 03:12:21;;;;;;;5.05;1.45;;;;;;;;;;6189961;28;20557;-71
2021/05/27 03:15:22;;;;;;;4.28;1.20;;;;;;;;;;6189564;28;20125;-72
2021/05/27 03:18:23;;;;;;;6.18;1.30;;;;;;;;;;6186740;28;20066;-72
2021/05/27 03:21:24;;;;;;;5.65;1.10;;;;;;;;;;6184473;28;20046;-76
2021/05/27 03:24:26;;;;;;;2.72;1.05;;;;;;;;;;6186578;28;20077;-72
2021/05/27 03:27:27;;;;;;;7.05;1.38;;;;;;;;;;6192432;28;20489;-72
2021/05/27 03:30:29;;;;;;;4.47;1.40;;;;;;;;;;6186017;28;20145;-72
2021/05/27 03:33:30;;;;;;;3.53;1.38;;;;;;;;;;6183838;28;20145;-73
2021/05/27 03:36:31;;;;;;;6.82;1.42;;;;;;;;;;6189663;28;20129;-73
2021/05/27 03:39:33;;;;;;;4.00;1.30;;;;;;;;;;6183010;28;20417;-72
2021/05/27 03:42:34;;;;;;;6.32;1.95;;;;;;;;;;6190880;28;20060;-75
2021/05/27 03:45:37;;;;;;;5.57;2.25;;;;;;;;;;6182680;28;20069;-72
2021/05/27 03:48:38;;;;;;;5.50;1.50;;;;;;;;;;6203714;28;20081;-72
2021/05/27 03:51:39;;;;;;;8.10;1.70;;;;;;;;;;6197235;28;20046;-72
2021/05/27 03:54:44;;;;;;;4.95;1.27;;;;;;;;;;6191426;28;20140;-74
2021/05/27 03:57:46;;;;;;;4.82;1.52;;;;;;;;;;6200050;28;20046;-74
2021/05/27 04:00:46;;;;;;;6.85;1.48;;;;;;;;;;6209013;28;20137;-71
2021/05/27 04:07:15;;;;;;;6.38;1.50;;;;;;;;;;6192907;28;20058;-72
2021/05/27 04:10:17;;;;;;;4.43;1.52;;;;;;;;;;6202448;28;20096;-72
2021/05/27 04:13:18;;;;;;;4.80;1.55;;;;;;;;;;6196521;28;20054;-72
2021/05/27 04:16:19;;;;;;;5.40;1.48;;;;;;;;;;6196325;28;20073;-72
2021/05/27 04:19:21;;;;;;;6.05;1.60;;;;;;;;;;6182318;28;20074;-72
2021/05/27 04:22:22;;;;;;;6.40;1.65;;;;;;;;;;6187038;28;20086;-71
2021/05/27 04:25:25;;;;;;;7.15;1.58;;;;;;;;;;6195115;28;20577;-72
2021/05/27 04:28:26;;;;;;;10.17;2.07;;;;;;;;;;6191328;28;20073;-73
2021/05/27 04:31:32;;;;;;;6.32;1.80;;;;;;;;;;6189870;28;20054;-72
2021/05/27 04:34:33;;;;;;;6.15;1.55;;;;;;;;;;6187602;28;21390;-75
2021/05/27 04:37:34;;;;;;;7.72;1.90;;;;;;;;;;6199041;28;20165;-73
2021/05/27 04:40:37;;;;;;;7.80;1.88;;;;;;;;;;6199847;28;20058;-73
2021/05/27 04:43:39;;;;;;;5.75;2.03;;;;;;;;;;6187736;28;20137;-72
2021/05/27 04:46:40;;;;;;;4.70;1.70;;;;;;;;;;6183205;28;20053;-73
2021/05/27 04:49:41;;;;;;;6.57;1.80;;;;;;;;;;6184503;28;20043;-72
2021/05/27 04:52:42;;;;;;;7.43;1.95;;;;;;;;;;6186200;28;20481;-72
2021/05/27 04:55:45;;;;;;;8.80;2.03;;;;;;;;;;6181685;28;20074;-72
2021/05/27 04:58:46;;;;;;;6.55;1.83;;;;;;;;;;6188449;28;20042;-72
2021/05/27 05:01:47;;;;;;;10.57;1.90;;;;;;;;;;6192864;28;20097;-74
2021/05/27 05:04:49;;;;;;;6.35;1.98;;;;;;;;;;6192708;28;20090;-72
2021/05/27 05:07:50;;;;;;;5.75;1.85;;;;;;;;;;6197850;28;20051;-73
2021/05/27 05:10:52;;;;;;;6.55;1.80;;;;;;;;;;6192553;28;20078;-78
2021/05/27 05:13:53;;;;;;;4.05;1.63;;;;;;;;;;6192960;28;20118;-71
2021/05/27 05:16:54;;;;;;;6.13;2.15;;;;;;;;;;6183980;28;20528;-73
2021/05/27 05:19:55;;;;;;;8.00;2.13;;;;;;;;;;6187079;28;20077;-72
2021/05/27 05:22:56;;;;;;;9.18;2.60;;;;;;;;;;6184489;28;20074;-72
2021/05/27 05:25:59;;;;;;;8.57;1.80;;;;;;;;;;6191608;28;20141;-72
2021/05/27 05:29:00;;;;;;;7.00;1.98;;;;;;;;;;6184440;28;20125;-74
2021/05/27 05:32:08;;;;;;;8.40;2.42;;;;;;;;;;6199313;28;20402;-73
2021/05/27 05:35:11;;;;;;;5.25;1.88;;;;;;;;;;6195909;28;20182;-71
2021/05/27 05:38:12;;;;;;;7.87;2.40;;;;;;;;;;6199282;28;20153;-71
2021/05/27 05:41:14;;;;;;;8.00;1.95;;;;;;;;;;6198882;28;20468;-71
2021/05/27 05:44:18;;;;;;;7.63;2.15;;;;;;;;;;6194625;28;20133;-71
2021/05/27 05:47:19;;;;;;;8.43;2.30;;;;;;;;;;6188914;28;20145;-72
2021/05/27 05:53:37;;;;;;;7.38;2.45;;;;;;;;;;6196983;28;20134;-77
2021/05/27 05:56:39;;;;;;;7.72;2.33;;;;;;;;;;6196244;28;20057;-72
2021/05/27 05:59:40;;;;;;;8.32;2.25;;;;;;;;;;6185836;28;20082;-73
2021/05/27 06:02:41;;;;;;;5.40;1.77;;;;;;;;;;6189755;28;20057;-72
2021/05/27 06:05:42;;;;;;;5.28;1.73;;;;;;;;;;6194562;28;20523;-71
2021/05/27 06:08:44;;;;;;;9.13;2.25;;;;;;;;;;6191709;28;20105;-73
2021/05/27 06:11:46;;;;;;;7.18;2.50;;;;;;;;;;6193937;28;20133;-72
2021/05/27 06:14:47;;;;;;;6.43;2.22;;;;;;;;;;6189332;28;20077;-75
2021/05/27 06:17:48;;;;;;;10.68;2.50;;;;;;;;;;6186197;28;20493;-71
2021/05/27 06:20:49;;;;;;;8.50;3.05;;;;;;;;;;6186698;28;20533;-74
2021/05/27 06:23:50;;;;;;;8.32;2.50;;;;;;;;;;6181819;28;20141;-74
2021/05/27 06:26:52;;;;;;;10.30;2.42;;;;;;;;;;6182849;28;20154;-71
2021/05/27 06:29:53;;;;;;;14.50;2.97;;;;;;;;;;6184611;28;20090;-71
2021/05/27 06:32:55;;;;;;;8.50;2.95;;;;;;;;;;6185992;28;20089;-72
2021/05/27 06:35:56;;;;;;;13.63;3.38;;;;;;;;;;6192485;28;20062;-73
2021/05/27 06:38:57;;;;;;;13.25;2.90;;;;;;;;;;6189278;28;20140;-72
2021/05/27 06:41:59;;;;;;;10.55;3.13;;;;;;;;;;6190762;28;20077;-72
2021/05/27 06:45:08;;;;;;;11.18;4.20;;;;;;;;;;6185280;28;20118;-72
2021/05/27 06:48:09;;;;;;;13.00;4.03;;;;;;;;;;6192898;28;20124;-70
2021/05/27 06:51:10;;;;;;;15.82;5.15;;;;;;;;;;6188807;28;20081;-74
2021/05/27 06:54:11;;;;;;;12.52;4.95;;;;;;;;;;6193816;28;20077;-74
2021/05/27 06:57:13;;;;;;;10.40;5.10;;;;;;;;;;6196109;28;20050;-71
2021/05/27 07:00:19;;;;;;;8.65;4.07;;;;;;;;;;6191221;28;20076;-71
2021/05/27 07:03:22;;;;;;;13.50;4.80;;;;;;;;;;6187438;28;20046;-71
2021/05/27 07:06:23;;;;;;;13.00;3.88;;;;;;;;;;6189645;28;20050;-71
2021/05/27 07:09:24;;;;;;;9.48;2.83;;;;;;;;;;6188198;28;20109;-73
2021/05/27 07:12:34;;;;;;;7.72;3.33;;;;;;;;;;6185912;28;20224;-73
2021/05/27 07:15:35;;;;;;;7.63;2.28;;;;;;;;;;6189828;28;20510;-72
2021/05/27 07:18:36;;;;;;;6.28;2.63;;;;;;;;;;6192066;28;20073;-72
2021/05/27 07:21:38;;;;;;;13.18;2.88;;;;;;;;;;6186125;28;20097;-76
2021/05/27 07:24:39;;;;;;;11.90;2.97;;;;;;;;;;6187041;28;20672;-72
2021/05/27 07:27:43;;;;;;;8.95;2.50;;;;;;;;;;6190634;28;20070;-72
2021/05/27 07:30:44;;;;;;;10.43;2.65;;;;;;;;;;6195621;28;20050;-73
2021/05/27 07:33:45;;;;;;;12.88;3.08;;;;;;;;;;6194178;28;20085;-73
2021/05/27 07:36:46;;;;;;;7.25;2.17;;;;;;;;;;6197463;28;20101;-72
2021/05/27 07:39:49;;;;;;;7.75;2.22;;;;;;;;;;6196956;28;20165;-74
2021/05/27 07:42:51;;;;;;;13.20;2.88;;;;;;;;;;6188300;28;20064;-73
2021/05/27 07:45:52;;;;;;;9.88;3.67;;;;;;;;;;6188314;28;20042;-72
2021/05/27 07:48:55;;;;;;;8.23;3.00;;;;;;;;;;6189274;28;20476;-72
2021/05/27 07:51:56;;;;;;;10.50;2.55;;;;;;;;;;6187311;28;20129;-77
2021/05/27 07:54:57;;;;;;;9.48;2.47;;;;;;;;;;6183405;28;20042;-72
2021/05/27 07:57:59;;;;;;;7.20;2.45;;;;;;;;;;6179714;28;20441;-76
2021/05/27 08:01:01;;;;;;;9.05;2.15;;;;;;;;;;6178940;28;20451;-71
2021/05/27 08:04:02;;;;;;;4.88;1.90;;;;;;;;;;6164986;28;20124;-76
2021/05/27 08:07:07;;;;;;;6.90;2.50;;;;;;;;;;6183414;28;20058;-74
2021/05/27 08:10:09;;;;;;;8.45;2.42;;;;;;;;;;6194445;28;20046;-72
2021/05/27 08:13:13;;;;;;;7.03;2.07;;;;;;;;;;6193843;28;20446;-73
2021/05/27 08:16:14;;;;;;;5.43;2.28;;;;;;;;;;6200840;28;20051;-75
2021/05/27 08:19:18;;;;;;;9.27;2.30;;;;;;;;;;6179535;28;20121;-76
2021/05/27 08:22:22;;;;;;;6.13;1.98;;;;;;;;;;6181658;28;20042;-73
2021/05/27 08:25:24;;;;;;;7.07;1.73;;;;;;;;;;6179873;28;20109;-73
2021/05/27 08:28:26;;;;;;;5.93;1.83;;;;;;;;;;6181923;28;20405;-71
2021/05/27 08:31:27;;;;;;;5.60;1.77;;;;;;;;;;6179310;28;20039;-72
2021/05/27 08:34:28;;;;;;;8.30;1.60;;;;;;;;;;6183904;28;20502;-77
2021/05/27 08:37:30;;;;;;;6.05;1.90;;;;;;;;;;6182461;28;20137;-72
2021/05/27 08:40:31;;;;;;;5.05;1.85;;;;;;;;;;6184178;28;20494;-77
2021/05/27 08:43:33;;;;;;;22.77;3.05;;;;;;;;;;6173147;28;20128;-72
2021/05/27 08:46:34;;;;;;;5.95;2.03;;;;;;;;;;6200389;28;20050;-72
2021/05/27 08:49:37;;;;;;;8.82;1.90;;;;;;;;;;6203818;28;20050;-72
2021/05/27 08:52:38;;;;;;;6.50;2.13;;;;;;;;;;6198509;28;20067;-75
2021/05/27 08:55:39;;;;;;;6.35;1.58;;;;;;;;;;6157226;28;20675;-76
2021/05/27 08:58:42;;;;;;;6.57;1.65;;;;;;;;;;6183886;28;20054;-72
2021/05/27 09:01:59;;;;;;;5.18;1.52;;;;;;;;;;6179819;28;20402;-74
2021/05/27 09:05:14;;;;;;;9.63;1.77;;;;;;;;;;6188183;28;20410;-72
2021/05/27 09:08:30;;;;;;;5.50;1.30;;;;;;;;;;6190290;28;20057;-72
2021/05/27 09:11:37;;;;;;;6.43;1.50;;;;;;;;;;6195334;28;20042;-72
2021/05/27 09:14:41;;;;;;;7.35;1.83;;;;;;;;;;6201392;28;20058;-71
2021/05/27 09:17:44;;;;;;;5.15;1.58;;;;;;;;;;6193660;28;20125;-77
2021/05/27 09:20:46;;;;;;;7.28;1.63;;;;;;;;;;6180653;28;20059;-76
2021/05/27 09:23:48;;;;;;;9.05;1.77;;;;;;;;;;6183668;28;20090;-79
2021/05/27 09:26:50;;;;;;;7.27;1.70;;;;;;;;;;6178653;28;20133;-72
2021/05/27 09:29:52;;;;;;;6.80;1.67;;;;;;;;;;6189021;28;20860;-71
2021/05/27 09:32:53;;;;;;;10.77;3.25;;;;;;;;;;6184266;28;20129;-73
2021/05/27 09:35:59;;;;;;;4.85;1.73;;;;;;;;;;6182148;28;20493;-71
2021/05/27 09:39:01;;;;;;;4.82;1.95;;;;;;;;;;6188019;28;20073;-73
2021/05/27 09:42:03;;;;;;;8.52;2.08;;;;;;;;;;6191129;28;20054;-72
2021/05/27 09:45:16;;;;;;;5.57;1.75;;;;;;;;;;6187752;28;20229;-78
2021/05/27 09:48:22;;;;;;;5.65;1.83;;;;;;;;;;6196820;28;20049;-72
2021/05/27 09:51:27;;;;;;;5.07;1.55;;;;;;;;;;6193263;28;20055;-72
2021/05/27 09:54:51;;;;;;;7.88;1.85;;;;;;;;;;6198590;28;20050;-72
2021/05/27 09:57:52;;;;;;;5.78;1.75;;;;;;;;;;6195065;28;20066;-74
2021/05/27 10:00:55;;;;;;;6.40;1.73;;;;;;;;;;6197046;28;20049;-73
2021/05/27 10:04:10;;;;;;;6.28;2.03;;;;;;;;;;6199309;28;20051;-72
2021/05/27 10:07:35;;;;;;;7.93;2.33;;;;;;;;;;6192952;28;20054;-72
2021/05/27 10:10:37;;;;;;;13.13;2.13;;;;;;;;;;6183416;28;20050;-74
2021/05/27 10:13:38;;;;;;;7.63;2.92;;;;;;;;;;6181638;28;20046;-75
2021/05/27 10:16:40;;;;;;;7.95;2.28;;;;;;;;;;6181749;28;20070;-72
2021/05/27 10:19:41;;;;;;;7.70;2.87;;;;;;;;;;6180740;28;20054;-72
2021/05/27 10:22:43;;;;;;;8.85;3.10;;;;;;;;;;6186385;28;20903;-74
2021/05/27 10:25:46;;;;;;;7.32;2.90;;;;;;;;;;6190936;28;20172;-75
2021/05/27 10:28:49;;;;;;;6.95;2.45;;;;;;;;;;6196100;28;20057;-75
2021/05/27 10:31:51;;;;;;;5.22;2.13;;;;;;;;;;6187896;28;20057;-72
2021/05/27 10:34:53;;;;;;;7.82;2.03;;;;;;;;;;6193377;28;20050;-72
2021/05/27 10:37:54;;;;;;;5.88;2.30;;;;;;;;;;6196566;28;20038;-72
2021/05/27 10:40:55;;;;;;;7.85;2.40;;;;;;;;;;6198114;28;20500;-74
2021/05/27 10:44:14;;;;;;;9.07;2.08;;;;;;;;;;6195657;28;20048;-76
2021/05/27 10:47:17;;;;;;;6.18;2.00;;;;;;;;;;6198699;28;20570;-72
2021/05/27 10:50:18;;;;;;;5.45;1.70;;;;;;;;;;6198074;28;20746;-75
2021/05/27 10:53:51;;;;;;;5.93;2.10;;;;;;;;;;6192830;28;20057;-73
2021/05/27 10:56:52;;;;;;;5.80;2.15;;;;;;;;;;6184947;28;20054;-72
2021/05/27 10:59:53;;;;;;;7.45;2.25;;;;;;;;;;6189476;28;20116;-72
2021/05/27 11:02:55;;;;;;;6.65;2.58;;;;;;;;;;6193400;28;20137;-72
2021/05/27 11:06:18;;;;;;;6.50;2.05;;;;;;;;;;6191713;28;20123;-72
2021/05/27 11:09:34;;;;;;;;;;;;;;;;;;6192866;28;20146;-72
2021/05/27 11:12:36;;;;;;;5.63;1.90;;;;;;;;;;6191200;28;19937;-72
2021/05/27 11:16:02;;;;;;;4.93;1.75;;;;;;;;;;6195521;28;20067;-75
2021/05/27 11:19:39;;;;;;;7.40;2.22;;;;;;;;;;6184719;28;20169;-75
2021/05/27 11:23:05;;;;;;;4.95;2.08;;;;;;;;;;6191636;28;20094;-74
2021/05/27 11:26:18;;;;;;;10.07;2.00;;;;;;;;;;6196456;28;20102;-73
2021/05/27 11:29:19;;;;;;;14.50;2.63;;;;;;;;;;6188816;28;20049;-78
2021/05/27 11:32:34;;;;;;;4.65;2.25;;;;;;;;;;6193898;28;20084;-73
2021/05/27 11:35:43;;;;;;;8.80;2.83;;;;;;;;;;6194089;28;20133;-73
2021/05/27 11:38:44;;;;;;;4.55;1.90;;;;;;;;;;6194506;28;20775;-72
2021/05/27 11:41:45;;;;;;;5.20;1.85;;;;;;;;;;6189266;28;20084;-74
2021/05/27 11:44:55;;;;;;;5.32;1.88;;;;;;;;;;6195205;28;20038;-73
2021/05/27 11:48:12;;;;;;;9.18;2.03;;;;;;;;;;6191348;28;20088;-73
2021/05/27 11:51:16;;;;;;;3.38;1.50;;;;;;;;;;6188868;28;20054;-71
2021/05/27 11:54:17;;;;;;;4.38;1.92;;;;;;;;;;6188149;28;20498;-72
2021/05/27 11:57:20;;;;;;;4.93;2.10;;;;;;;;;;6188181;28;22141;-74
2021/05/27 12:00:21;;;;;;;;;;;;;;;;;;6188817;28;20042;-72
2021/05/27 12:03:22;;;;;;;6.50;1.98;;;;;;;;;;6181803;28;20489;-72
2021/05/27 12:06:24;;;;;;;6.00;1.83;;;;;;;;;;6191777;28;20118;-72
2021/05/27 12:09:30;;;;;;;6.30;1.88;;;;;;;;;;6192236;28;20137;-71
2021/05/27 12:12:34;;;;;;;5.05;1.80;;;;;;;;;;6184315;28;20129;-72
2021/05/27 12:15:42;;;;;;;3.97;1.48;;;;;;;;;;6193427;28;20050;-73
2021/05/27 12:18:43;;;;;;;5.70;1.92;;;;;;;;;;6189388;28;20146;-72
2021/05/27 12:21:53;;;;;;;3.10;1.58;;;;;;;;;;6189458;28;20137;-72
2021/05/27 12:25:05;;;;;;;4.45;2.00;;;;;;;;;;6188188;28;20141;-72
2021/05/27 12:28:12;;;;;;;5.65;1.70;;;;;;;;;;6185158;28;20066;-72
2021/05/27 12:31:13;;;;;;;7.35;1.73;;;;;;;;;;6192338;28;20096;-72
2021/05/27 12:34:16;;;;;;;6.20;1.77;;;;;;;;;;6192486;28;20142;-73
2021/05/27 12:37:18;;;;;;;6.43;2.10;;;;;;;;;;6193591;28;20125;-71
2021/05/27 12:40:23;;;;;;;4.57;1.63;;;;;;;;;;6191954;28;20055;-71
2021/05/27 12:43:26;;;;;;;5.30;1.50;;;;;;;;;;6176985;28;20198;-71
2021/05/27 12:46:31;;;;;;;4.60;1.58;;;;;;;;;;6177603;28;20404;-73
2021/05/27 12:49:33;;;;;;;4.53;1.65;;;;;;;;;;6183848;28;20052;-73
2021/05/27 12:52:40;;;;;;;8.02;1.67;;;;;;;;;;6197997;28;20129;-71
2021/05/27 12:55:42;;;;;;;7.05;1.85;;;;;;;;;;6188234;28;20081;-71
2021/05/27 12:58:44;;;;;;;5.68;1.73;;;;;;;;;;6195919;28;20136;-72
2021/05/27 13:01:47;;;;;;;7.03;1.75;;;;;;;;;;6182551;28;20137;-73
2021/05/27 13:04:48;;;;;;;;;;;;;;;;;;6192093;28;20054;-71
2021/05/27 13:07:57;;;;;;;7.65;1.73;;;;;;;;;;6187644;28;19928;-71
2021/05/27 13:10:59;;;;;;;7.18;1.40;;;;;;;;;;6180972;28;20047;-71
2021/05/27 13:14:12;;;;;;;6.80;1.58;;;;;;;;;;6180844;28;20078;-72
2021/05/27 13:17:15;;;;;;;4.75;1.40;;;;;;;;;;6171744;23;20046;-72
2021/05/27 13:20:16;;;;;;;6.03;1.90;;;;;;;;;;6175364;28;20136;-72
2021/05/27 13:23:23;;;;;;;5.25;1.40;;;;;;;;;;6178116;28;20073;-72
2021/05/27 13:26:26;;;;;;;4.38;1.30;;;;;;;;;;6173346;28;20045;-72
2021/05/27 13:29:29;;;;;;;4.53;1.27;;;;;;;;;;6177082;28;20438;-71
2021/05/27 13:32:32;;;;;;;4.72;1.20;;;;;;;;;;6162816;28;21610;-72
2021/05/27 13:35:33;;;;;;;4.57;1.63;;;;;;;;;;6180347;28;20046;-71
2021/05/27 13:38:35;;;;;;;5.90;1.40;;;;;;;;;;6190018;28;20506;-72
2021/05/27 13:41:36;;;;;;;4.10;1.88;;;;;;;;;;6191689;28;20512;-72
2021/05/27 13:44:37;;;;;;;4.85;1.90;;;;;;;;;;6190407;28;20137;-71
2021/05/27 13:47:38;;;;;;;4.68;1.20;;;;;;;;;;6182203;28;20050;-72
2021/05/27 13:50:43;;;;;;;2.53;1.58;;;;;;;;;;6184384;28;20428;-76
2021/05/27 13:53:44;;;;;;;3.40;1.30;;;;;;;;;;6191446;28;20046;-72
2021/05/27 13:56:46;;;;;;;3.30;1.55;;;;;;;;;;6189605;28;20153;-70
2021/05/27 13:59:47;;;;;;;7.22;2.28;;;;;;;;;;6193849;28;20490;-72
2021/05/27 14:02:50;;;;;;;3.65;1.55;;;;;;;;;;6190358;28;20042;-71
2021/05/27 14:05:51;;;;;;;4.70;1.40;;;;;;;;;;6183840;28;20046;-73
2021/05/27 14:08:53;;;;;;;4.40;1.55;;;;;;;;;;6192237;28;20143;-73
2021/05/27 14:11:54;;;;;;;2.60;1.20;;;;;;;;;;6167274;28;20041;-72
2021/05/27 14:14:57;;;;;;;7.20;1.55;;;;;;;;;;6173921;28;20134;-72
2021/05/27 14:17:59;;;;;;;4.07;1.20;;;;;;;;;;6161744;28;20046;-72
2021/05/27 14:21:00;;;;;;;5.07;2.17;;;;;;;;;;6165780;28;20134;-72
2021/05/27 14:24:02;;;;;;;4.68;1.40;;;;;;;;;;6161296;28;20616;-73
2021/05/27 14:27:04;;;;;;;9.80;1.60;;;;;;;;;;6169253;28;20189;-72
2021/05/27 14:30:08;;;;;;;5.78;1.50;;;;;;;;;;6175107;28;20110;-72
2021/05/27 14:33:09;;;;;;;3.70;1.25;;;;;;;;;;6160785;28;20553;-72
2021/05/27 14:36:11;;;;;;;10.95;1.50;;;;;;;;;;6181325;28;20051;-72
2021/05/27 14:39:13;;;;;;;6.68;1.52;;;;;;;;;;6173148;28;20054;-72
2021/05/27 14:42:14;;;;;;;7.43;1.60;;;;;;;;;;6184220;28;20149;-70
2021/05/27 14:45:15;;;;;;;3.78;1.27;;;;;;;;;;6188012;28;20454;-72
2021/05/27 14:48:16;;;;;;;8.38;1.52;;;;;;;;;;6172839;28;20173;-72
2021/05/27 14:51:17;;;;;;;14.98;2.70;;;;;;;;;;6170787;28;20381;-71
2021/05/27 14:54:19;;;;;;;19.58;2.38;;;;;;;;;;6178495;28;20068;-70
2021/05/27 14:57:20;;;;;;;7.35;1.63;;;;;;;;;;6178598;28;20074;-70
2021/05/27 15:00:23;;;;;;;12.50;2.20;;;;;;;;;;6172004;28;20541;-72
2021/05/27 15:03:25;;;;;;;10.70;1.80;;;;;;;;;;6173467;28;20124;-72
2021/05/27 15:06:26;;;;;;;5.07;1.23;;;;;;;;;;6169529;28;20049;-70
2021/05/27 15:09:28;;;;;;;9.70;1.77;;;;;;;;;;6175242;28;20043;-71
2021/05/27 15:12:29;;;;;;;6.32;1.58;;;;;;;;;;6173897;28;20054;-70
2021/05/27 15:15:30;;;;;;;5.15;1.50;;;;;;;;;;6168585;28;20066;-68
2021/05/27 15:18:33;;;;;;;10.75;1.83;;;;;;;;;;6172093;28;20129;-73
2021/05/27 15:21:35;;;;;;;8.90;1.70;;;;;;;;;;6171755;28;20580;-70
2021/05/27 15:24:37;;;;;;;5.05;1.48;;;;;;;;;;6170586;28;20411;-73
2021/05/27 15:27:38;;;;;;;6.13;1.92;;;;;;;;;;6182963;28;20133;-72
2021/05/27 15:30:39;;;;;;;7.13;1.65;;;;;;;;;;6181802;28;20552;-71
2021/05/27 15:33:40;;;;;;;5.82;1.52;;;;;;;;;;6194158;28;20682;-68
2021/05/27 15:36:42;;;;;;;5.90;1.55;;;;;;;;;;6177240;28;20343;-70
2021/05/27 15:39:44;;;;;;;4.40;1.42;;;;;;;;;;6172476;28;20046;-70
2021/05/27 15:42:45;;;;;;;2.08;1.30;;;;;;;;;;6174064;28;20136;-72
2021/05/27 15:45:46;;;;;;;7.47;1.73;;;;;;;;;;6175554;28;20133;-69
2021/05/27 15:48:48;;;;;;;11.35;2.13;;;;;;;;;;6192449;28;20089;-70
2021/05/27 15:51:49;;;;;;;6.88;1.60;;;;;;;;;;6193219;28;20145;-69
2021/05/27 15:54:52;;;;;;;21.75;2.67;;;;;;;;;;6185917;28;20206;-72
2021/05/27 15:57:54;;;;;;;4.63;1.55;;;;;;;;;;6186327;28;20141;-69
2021/05/27 16:00:55;;;;;;;5.82;1.65;;;;;;;;;;6183595;28;20059;-70
2021/05/27 16:03:56;;;;;;;6.03;1.38;;;;;;;;;;6183016;28;20046;-71
2021/05/27 16:06:57;;;;;;;5.80;1.67;;;;;;;;;;6183537;28;20066;-69
2021/05/27 16:10:01;;;;;;;4.47;1.38;;;;;;;;;;6185524;28;20096;-69
2021/05/27 16:13:05;;;;;;;4.60;1.40;;;;;;;;;;6187195;28;20042;-70
2021/05/27 16:16:06;;;;;;;6.28;1.73;;;;;;;;;;6187322;28;20060;-71
2021/05/27 16:19:07;;;;;;;3.67;1.33;;;;;;;;;;6185984;28;20483;-69
2021/05/27 16:22:08;;;;;;;5.50;1.92;;;;;;;;;;6185624;28;20494;-69
2021/05/27 16:25:12;;;;;;;4.57;1.58;;;;;;;;;;6188625;28;20046;-70
2021/05/27 16:28:14;;;;;;;4.72;1.42;;;;;;;;;;6157289;28;20047;-73
2021/05/27 16:31:16;;;;;;;5.63;1.60;;;;;;;;;;6175031;28;20490;-71
2021/05/27 16:34:20;;;;;;;3.20;1.23;;;;;;;;;;6172263;28;20139;-70
2021/05/27 16:40:42;;;;;;;6.72;1.70;;;;;;;;;;6172647;28;20426;-72
2021/05/27 16:43:43;;;;;;;4.13;1.50;;;;;;;;;;6169838;28;20366;-72
2021/05/27 16:46:44;;;;;;;3.42;1.45;;;;;;;;;;6172722;28;20065;-72
2021/05/27 16:49:45;;;;;;;6.32;1.80;;;;;;;;;;6170008;28;20053;-72
2021/05/27 16:52:47;;;;;;;4.93;1.65;;;;;;;;;;6172532;28;20052;-71
2021/05/27 16:55:49;;;;;;;7.88;1.80;;;;;;;;;;6184582;28;20133;-72
2021/05/27 16:58:50;;;;;;;7.40;1.95;;;;;;;;;;6198748;28;20527;-73
2021/05/27 17:01:51;;;;;;;5.03;1.50;;;;;;;;;;6194004;28;20384;-69
2021/05/27 17:04:52;;;;;;;6.30;2.15;;;;;;;;;;6191362;28;20093;-71
2021/05/27 17:07:53;;;;;;;4.90;1.50;;;;;;;;;;6190654;28;20046;-72
2021/05/27 17:10:55;;;;;;;8.90;1.90;;;;;;;;;;6188362;28;20428;-73
2021/05/27 17:13:56;;;;;;;5.90;1.95;;;;;;;;;;6193956;28;20605;-71
2021/05/27 17:16:57;;;;;;;2.35;1.30;;;;;;;;;;6178845;28;20253;-69
2021/05/27 17:19:58;;;;;;;6.30;1.60;;;;;;;;;;6172320;28;20141;-71
2021/05/27 17:23:00;;;;;;;6.40;1.40;;;;;;;;;;6175566;28;20039;-72
2021/05/27 17:26:03;;;;;;;3.33;1.35;;;;;;;;;;6164503;28;20054;-70
2021/05/27 17:29:09;;;;;;;3.45;1.50;;;;;;;;;;6177523;28;20082;-71
2021/05/27 17:32:11;;;;;;;4.38;1.90;;;;;;;;;;6171884;28;20047;-73
2021/05/27 17:35:13;;;;;;;1.90;1.30;;;;;;;;;;6176143;28;20464;-71
2021/05/27 17:38:14;;;;;;;7.10;2.20;;;;;;;;;;6161046;28;20479;-72
2021/05/27 17:41:16;;;;;;;3.10;1.33;;;;;;;;;;6171784;28;20052;-71
2021/05/27 17:44:17;;;;;;;5.85;1.50;;;;;;;;;;6185308;28;20134;-71
2021/05/27 17:47:18;;;;;;;3.78;1.55;;;;;;;;;;6183640;28;20062;-71
2021/05/27 17:50:19;;;;;;;5.57;1.42;;;;;;;;;;6192915;28;20390;-72
2021/05/27 17:53:20;;;;;;;3.85;1.90;;;;;;;;;;6191229;28;20515;-71
2021/05/27 17:56:22;;;;;;;5.45;1.80;;;;;;;;;;6181564;28;20136;-70
2021/05/27 17:59:23;;;;;;;9.65;1.80;;;;;;;;;;6192422;28;20133;-69
2021/05/27 18:02:24;;;;;;;3.75;1.60;;;;;;;;;;6187760;28;20092;-71
2021/05/27 18:05:26;;;;;;;4.97;1.42;;;;;;;;;;6193203;28;20046;-70
2021/05/27 18:08:27;;;;;;;4.95;2.13;;;;;;;;;;6189476;28;20228;-71
2021/05/27 18:11:29;;;;;;;4.45;2.00;;;;;;;;;;6183184;28;20113;-72
2021/05/27 18:14:30;;;;;;;4.18;1.65;;;;;;;;;;6189654;28;20066;-71
2021/05/27 18:17:31;;;;;;;4.82;2.28;;;;;;;;;;6194553;28;20051;-72
2021/05/27 18:20:32;;;;;;;6.30;2.00;;;;;;;;;;6191037;28;20142;-70
2021/05/27 18:23:33;;;;;;;9.20;2.47;;;;;;;;;;6186752;28;20907;-71
2021/05/27 18:26:36;;;;;;;13.15;3.50;;;;;;;;;;6190221;28;20046;-72